»·PEaware :: N7234J KYKM-KPDX

N7234J :: KYKM-KPDX

FLIGHT INFORMATION

Flight Status: Arrived
Operator: Privately registered:
United States
More flights under this callsign
Pilot: Wayne R. (17783)
Aircraft: PIPER PA-28 CHEROKEE ARCHER
(P28A)
More flights by this aircraft type
Origin: KYKM Yakima Air Term/Mcallister
United States
Destination: KPDX Portland Intl
United States
More flights between these airports :: More routes between these airports
Route:
File this flight plan on PilotEdge
Remarks:
Altitude:
(Current/Filed)
7,500ft
Speed:
(Current/Filed)
110kts
Departed: 11-Jul-20 10:28 AM
Arrived: 11-Jul-20 11:46 AM
Distance/Time
Traveled:
103nm/1:18
Distance/Time
To Go:
Arrived

Flight Plot

Page will automatically refresh every two minutes.


Map Options




Map Legend


Flown Route
Filed Route
Departure Airport
Arrival Airport
Navaid (VOR, NDB)
Fix

Horizontal Profiles

Position Reports

Time Latitude Longitude Heading Altitude Ground
Speed
11-Jul-20 10:21 46.568519 -120.531725 220 1050ft 0kts
11-Jul-20 10:22 46.568519 -120.531725 220 1050ft 0kts
11-Jul-20 10:23 46.568519 -120.531725 220 1050ft 0kts
11-Jul-20 10:24 46.568519 -120.531725 220 1050ft 0kts
11-Jul-20 10:25 46.567374 -120.531518 175 1049ft 1kts
11-Jul-20 10:26 46.565805 -120.532014 254 1049ft 25kts
11-Jul-20 10:27 46.572204 -120.556963 274 1749ft 80kts
11-Jul-20 10:28 46.552367 -120.571078 191 2565ft 93kts
11-Jul-20 10:29 46.526350 -120.575632 191 3311ft 97kts
11-Jul-20 10:30 46.499107 -120.580304 192 3909ft 99kts
11-Jul-20 10:31 46.472952 -120.587746 198 4496ft 94kts
11-Jul-20 10:32 46.445662 -120.596801 198 4836ft 100kts
11-Jul-20 10:33 46.419428 -120.605363 198 5320ft 95kts
11-Jul-20 10:34 46.393934 -120.613570 198 5809ft 93kts
11-Jul-20 10:35 46.369181 -120.622522 206 6298ft 89kts
11-Jul-20 10:36 46.345698 -120.635943 208 6611ft 99kts
11-Jul-20 10:37 46.321960 -120.655142 215 6609ft 94kts
11-Jul-20 10:38 46.301212 -120.679781 221 6517ft 96kts
11-Jul-20 10:39 46.278671 -120.699930 212 6518ft 95kts
11-Jul-20 10:40 46.255803 -120.718990 213 6518ft 95kts
11-Jul-20 10:41 46.232957 -120.738142 213 6518ft 95kts
11-Jul-20 10:42 46.209404 -120.756906 213 6510ft 98kts
11-Jul-20 10:43 46.184980 -120.775535 214 6509ft 99kts
11-Jul-20 10:44 46.160356 -120.794462 214 6578ft 104kts
11-Jul-20 10:45 46.136120 -120.813251 214 6972ft 96kts
11-Jul-20 10:46 46.113097 -120.831102 214 7371ft 93kts
11-Jul-20 10:47 46.090692 -120.848599 215 7770ft 90kts
11-Jul-20 10:48 46.094738 -120.870351 343 8153ft 104kts
11-Jul-20 10:49 46.094133 -120.893792 215 8505ft 89kts
11-Jul-20 10:50 46.070665 -120.913521 215 8509ft 102kts
11-Jul-20 10:51 46.046045 -120.934517 215 8508ft 102kts
11-Jul-20 10:52 46.016426 -120.935515 195 8507ft 107kts
11-Jul-20 10:53 45.987494 -120.942154 196 8507ft 102kts
11-Jul-20 10:54 45.959563 -120.948557 196 8508ft 101kts
11-Jul-20 10:55 45.932057 -120.956086 205 8507ft 99kts
11-Jul-20 10:56 45.908741 -120.971460 211 8508ft 97kts
11-Jul-20 10:57 45.884690 -120.987789 211 8510ft 97kts
11-Jul-20 10:58 45.860077 -121.004555 211 8509ft 96kts
11-Jul-20 10:59 45.836072 -121.020827 211 8510ft 95kts
11-Jul-20 11:00 45.811804 -121.037409 211 8509ft 97kts
11-Jul-20 11:01 45.789770 -121.058493 225 8509ft 94kts
11-Jul-20 11:02 45.774778 -121.087768 246 8509ft 93kts
11-Jul-20 11:03 45.764529 -121.121772 246 8509ft 92kts
11-Jul-20 11:04 45.754403 -121.155606 246 8509ft 92kts
11-Jul-20 11:05 45.744370 -121.189509 247 8509ft 92kts
11-Jul-20 11:06 45.734480 -121.223190 246 8509ft 92kts
11-Jul-20 11:07 45.728951 -121.259099 265 8508ft 94kts
11-Jul-20 11:08 45.729301 -121.296847 266 8508ft 94kts
11-Jul-20 11:09 45.729689 -121.334690 266 8508ft 94kts
11-Jul-20 11:10 45.730248 -121.372399 267 8508ft 94kts
11-Jul-20 11:11 45.730852 -121.409938 266 8508ft 93kts
11-Jul-20 11:12 45.731529 -121.447178 267 8508ft 93kts
11-Jul-20 11:13 45.731986 -121.484220 258 8508ft 92kts
11-Jul-20 11:14 45.726489 -121.519913 255 8507ft 90kts
11-Jul-20 11:15 45.723180 -121.549523 265 8286ft 96kts
11-Jul-20 11:16 45.723187 -121.587791 266 7974ft 95kts
11-Jul-20 11:17 45.723041 -121.625411 267 7661ft 94kts
11-Jul-20 11:18 45.722711 -121.652750 262 7436ft 94kts
11-Jul-20 11:19 45.718966 -121.689932 260 7105ft 95kts
11-Jul-20 11:20 45.714937 -121.722640 258 6689ft 98kts
11-Jul-20 11:21 45.709242 -121.758978 258 6347ft 94kts
11-Jul-20 11:22 45.703763 -121.790635 258 5930ft 98kts
11-Jul-20 11:23 45.695724 -121.828829 254 5433ft 102kts
11-Jul-20 11:24 45.686695 -121.867804 256 4935ft 104kts
11-Jul-20 11:25 45.680409 -121.907884 266 4583ft 96kts
11-Jul-20 11:26 45.675982 -121.943919 263 4590ft 89kts
11-Jul-20 11:27 45.671601 -121.978847 263 4591ft 89kts
11-Jul-20 11:28 45.667296 -122.013756 264 4591ft 89kts
11-Jul-20 11:29 45.662303 -122.053042 261 4592ft 106kts
11-Jul-20 11:30 45.656035 -122.094958 261 4459ft 108kts
11-Jul-20 11:31 45.649799 -122.137223 261 4257ft 109kts
11-Jul-20 11:32 45.643998 -122.179790 265 4054ft 109kts
11-Jul-20 11:33 45.640111 -122.223025 266 3851ft 110kts
11-Jul-20 11:34 45.636359 -122.266477 266 3637ft 110kts
11-Jul-20 11:35 45.631737 -122.311774 263 3152ft 118kts
11-Jul-20 11:36 45.626425 -122.358396 263 2650ft 119kts
11-Jul-20 11:37 45.620950 -122.405491 261 2147ft 120kts
11-Jul-20 11:38 45.610990 -122.449734 249 1641ft 116kts
11-Jul-20 11:39 45.601490 -122.493148 271 1189ft 109kts
11-Jul-20 11:40 45.610664 -122.531112 304 1184ft 108kts
11-Jul-20 11:41 45.621183 -122.572685 286 1182ft 114kts
11-Jul-20 11:42 45.626243 -122.612467 206 1205ft 83kts
11-Jul-20 11:43 45.607937 -122.628070 180 571ft 79kts
11-Jul-20 11:44 45.597012 -122.601287 121 113ft 77kts
11-Jul-20 11:45 45.590256 -122.585583 237 29ft 14kts
11-Jul-20 11:46 45.588742 -122.585566 112 27ft 22kts
11-Jul-20 11:47 45.586797 -122.581798 291 24ft 0kts

Navigation Log

Ident Type
Flight plan parsing failed, navigation log unavailable